sensor_id;sensor_type;location;lat;lon;timestamp;P1;durP1;ratioP1;P2;durP2;ratioP2
49840;SDS011;35738;49.890;5.930;2023-03-01T00:01:03;12.60;;;8.87;;
49840;SDS011;35738;49.890;5.930;2023-03-01T00:03:30;11.53;;;7.80;;
49840;SDS011;35738;49.890;5.930;2023-03-01T00:05:56;10.10;;;6.40;;
49840;SDS011;35738;49.890;5.930;2023-03-01T00:08:22;11.67;;;7.27;;
49840;SDS011;35738;49.890;5.930;2023-03-01T00:10:49;9.60;;;7.00;;
49840;SDS011;35738;49.890;5.930;2023-03-01T00:13:15;12.80;;;7.00;;
49840;SDS011;35738;49.890;5.930;2023-03-01T00:15:42;15.33;;;7.23;;
49840;SDS011;35738;49.890;5.930;2023-03-01T00:18:09;8.97;;;6.80;;
49840;SDS011;35738;49.890;5.930;2023-03-01T00:20:36;9.23;;;7.03;;
49840;SDS011;35738;49.890;5.930;2023-03-01T00:23:02;10.33;;;7.20;;
49840;SDS011;35738;49.890;5.930;2023-03-01T00:25:28;11.20;;;7.00;;
49840;SDS011;35738;49.890;5.930;2023-03-01T00:27:55;10.17;;;6.90;;
49840;SDS011;35738;49.890;5.930;2023-03-01T00:30:21;10.23;;;7.03;;
49840;SDS011;35738;49.890;5.930;2023-03-01T00:32:47;12.47;;;6.97;;
49840;SDS011;35738;49.890;5.930;2023-03-01T00:35:14;8.70;;;6.90;;
49840;SDS011;35738;49.890;5.930;2023-03-01T00:37:40;12.07;;;6.97;;
49840;SDS011;35738;49.890;5.930;2023-03-01T00:40:07;10.33;;;7.50;;
49840;SDS011;35738;49.890;5.930;2023-03-01T00:42:34;10.40;;;7.10;;
49840;SDS011;35738;49.890;5.930;2023-03-01T00:45:01;11.27;;;7.23;;
49840;SDS011;35738;49.890;5.930;2023-03-01T00:47:28;15.27;;;7.30;;
49840;SDS011;35738;49.890;5.930;2023-03-01T00:49:54;13.00;;;7.43;;
49840;SDS011;35738;49.890;5.930;2023-03-01T00:52:21;11.40;;;7.60;;
49840;SDS011;35738;49.890;5.930;2023-03-01T00:54:47;10.77;;;7.13;;
49840;SDS011;35738;49.890;5.930;2023-03-01T00:57:13;11.30;;;7.33;;
49840;SDS011;35738;49.890;5.930;2023-03-01T00:59:40;12.30;;;7.57;;
49840;SDS011;35738;49.890;5.930;2023-03-01T01:02:06;10.93;;;7.53;;
49840;SDS011;35738;49.890;5.930;2023-03-01T01:04:33;9.67;;;7.47;;
49840;SDS011;35738;49.890;5.930;2023-03-01T01:06:59;12.00;;;7.87;;
49840;SDS011;35738;49.890;5.930;2023-03-01T01:09:26;10.90;;;7.23;;
49840;SDS011;35738;49.890;5.930;2023-03-01T01:11:53;11.67;;;7.73;;
49840;SDS011;35738;49.890;5.930;2023-03-01T01:14:19;11.93;;;7.80;;
49840;SDS011;35738;49.890;5.930;2023-03-01T01:16:45;12.80;;;7.90;;
49840;SDS011;35738;49.890;5.930;2023-03-01T01:19:12;14.00;;;7.80;;
49840;SDS011;35738;49.890;5.930;2023-03-01T01:21:39;12.23;;;8.30;;
49840;SDS011;35738;49.890;5.930;2023-03-01T01:24:05;15.13;;;8.13;;
49840;SDS011;35738;49.890;5.930;2023-03-01T01:26:33;11.13;;;7.67;;
49840;SDS011;35738;49.890;5.930;2023-03-01T01:29:01;10.80;;;7.93;;
49840;SDS011;35738;49.890;5.930;2023-03-01T01:31:27;12.63;;;8.23;;
49840;SDS011;35738;49.890;5.930;2023-03-01T01:33:55;10.67;;;8.07;;
49840;SDS011;35738;49.890;5.930;2023-03-01T01:36:22;10.83;;;8.40;;
49840;SDS011;35738;49.890;5.930;2023-03-01T01:38:48;11.63;;;7.90;;
49840;SDS011;35738;49.890;5.930;2023-03-01T01:41:14;11.97;;;8.13;;
49840;SDS011;35738;49.890;5.930;2023-03-01T01:43:43;17.77;;;8.40;;
49840;SDS011;35738;49.890;5.930;2023-03-01T01:48:39;10.47;;;7.97;;
49840;SDS011;35738;49.890;5.930;2023-03-01T01:51:07;12.77;;;8.33;;
49840;SDS011;35738;49.890;5.930;2023-03-01T01:53:35;11.00;;;8.07;;
49840;SDS011;35738;49.890;5.930;2023-03-01T01:56:02;12.53;;;8.13;;
49840;SDS011;35738;49.890;5.930;2023-03-01T01:58:29;12.97;;;8.37;;
49840;SDS011;35738;49.890;5.930;2023-03-01T02:00:56;13.33;;;8.40;;
49840;SDS011;35738;49.890;5.930;2023-03-01T02:03:24;12.10;;;8.50;;
49840;SDS011;35738;49.890;5.930;2023-03-01T02:06:00;14.60;;;8.90;;
49840;SDS011;35738;49.890;5.930;2023-03-01T02:08:30;11.90;;;8.30;;
49840;SDS011;35738;49.890;5.930;2023-03-01T02:10:57;13.67;;;8.93;;
49840;SDS011;35738;49.890;5.930;2023-03-01T02:13:26;12.87;;;8.63;;
49840;SDS011;35738;49.890;5.930;2023-03-01T02:15:52;15.90;;;8.97;;
49840;SDS011;35738;49.890;5.930;2023-03-01T02:18:20;12.93;;;8.67;;
49840;SDS011;35738;49.890;5.930;2023-03-01T02:23:13;11.53;;;8.97;;
49840;SDS011;35738;49.890;5.930;2023-03-01T02:30:45;14.50;;;9.27;;
49840;SDS011;35738;49.890;5.930;2023-03-01T02:33:32;13.90;;;8.50;;
49840;SDS011;35738;49.890;5.930;2023-03-01T02:36:00;15.40;;;9.17;;
49840;SDS011;35738;49.890;5.930;2023-03-01T02:38:27;11.57;;;8.87;;
49840;SDS011;35738;49.890;5.930;2023-03-01T02:40:54;16.10;;;9.43;;
49840;SDS011;35738;49.890;5.930;2023-03-01T02:43:21;13.40;;;9.30;;
49840;SDS011;35738;49.890;5.930;2023-03-01T02:45:49;15.97;;;9.37;;
49840;SDS011;35738;49.890;5.930;2023-03-01T02:48:16;18.10;;;9.70;;
49840;SDS011;35738;49.890;5.930;2023-03-01T02:50:51;17.50;;;10.23;;
49840;SDS011;35738;49.890;5.930;2023-03-01T02:55:48;17.60;;;9.93;;
49840;SDS011;35738;49.890;5.930;2023-03-01T02:58:15;16.57;;;10.47;;
49840;SDS011;35738;49.890;5.930;2023-03-01T03:00:42;15.53;;;9.97;;
49840;SDS011;35738;49.890;5.930;2023-03-01T03:03:13;18.33;;;10.07;;
49840;SDS011;35738;49.890;5.930;2023-03-01T03:05:41;16.80;;;10.57;;
49840;SDS011;35738;49.890;5.930;2023-03-01T03:08:07;16.27;;;9.90;;
49840;SDS011;35738;49.890;5.930;2023-03-01T03:10:38;15.50;;;10.27;;
49840;SDS011;35738;49.890;5.930;2023-03-01T03:13:06;15.50;;;10.27;;
49840;SDS011;35738;49.890;5.930;2023-03-01T03:15:33;15.17;;;10.63;;
49840;SDS011;35738;49.890;5.930;2023-03-01T03:18:05;20.23;;;11.13;;
49840;SDS011;35738;49.890;5.930;2023-03-01T03:20:32;17.63;;;10.83;;
49840;SDS011;35738;49.890;5.930;2023-03-01T03:22:58;17.03;;;11.17;;
49840;SDS011;35738;49.890;5.930;2023-03-01T03:25:26;14.60;;;10.17;;
49840;SDS011;35738;49.890;5.930;2023-03-01T03:27:52;19.17;;;10.63;;
49840;SDS011;35738;49.890;5.930;2023-03-01T03:30:23;17.27;;;10.00;;
49840;SDS011;35738;49.890;5.930;2023-03-01T03:32:51;15.73;;;11.20;;
49840;SDS011;35738;49.890;5.930;2023-03-01T03:35:25;17.57;;;10.00;;
49840;SDS011;35738;49.890;5.930;2023-03-01T03:37:52;18.70;;;10.60;;
49840;SDS011;35738;49.890;5.930;2023-03-01T03:40:32;19.30;;;11.30;;
49840;SDS011;35738;49.890;5.930;2023-03-01T03:42:59;15.60;;;10.47;;
49840;SDS011;35738;49.890;5.930;2023-03-01T03:45:25;15.77;;;10.87;;
49840;SDS011;35738;49.890;5.930;2023-03-01T03:47:52;16.23;;;11.37;;
49840;SDS011;35738;49.890;5.930;2023-03-01T03:50:18;20.43;;;10.87;;
49840;SDS011;35738;49.890;5.930;2023-03-01T03:52:44;13.87;;;10.50;;
49840;SDS011;35738;49.890;5.930;2023-03-01T03:55:11;18.40;;;10.80;;
49840;SDS011;35738;49.890;5.930;2023-03-01T03:57:39;17.20;;;10.87;;
49840;SDS011;35738;49.890;5.930;2023-03-01T04:00:06;14.63;;;10.70;;
49840;SDS011;35738;49.890;5.930;2023-03-01T04:02:39;18.97;;;11.17;;
49840;SDS011;35738;49.890;5.930;2023-03-01T04:05:06;20.23;;;11.33;;
49840;SDS011;35738;49.890;5.930;2023-03-01T04:07:34;18.13;;;10.97;;
49840;SDS011;35738;49.890;5.930;2023-03-01T04:10:02;19.80;;;11.53;;
49840;SDS011;35738;49.890;5.930;2023-03-01T04:12:28;17.37;;;11.30;;
49840;SDS011;35738;49.890;5.930;2023-03-01T04:14:55;18.00;;;11.03;;
49840;SDS011;35738;49.890;5.930;2023-03-01T04:17:21;20.87;;;11.43;;
49840;SDS011;35738;49.890;5.930;2023-03-01T04:19:47;18.30;;;11.00;;
49840;SDS011;35738;49.890;5.930;2023-03-01T04:22:14;20.57;;;11.77;;
49840;SDS011;35738;49.890;5.930;2023-03-01T04:24:43;20.83;;;11.57;;
49840;SDS011;35738;49.890;5.930;2023-03-01T04:27:10;18.27;;;11.17;;
49840;SDS011;35738;49.890;5.930;2023-03-01T04:29:36;20.17;;;11.77;;
49840;SDS011;35738;49.890;5.930;2023-03-01T04:32:03;20.13;;;11.60;;
49840;SDS011;35738;49.890;5.930;2023-03-01T04:34:29;20.63;;;11.23;;
49840;SDS011;35738;49.890;5.930;2023-03-01T04:36:55;16.67;;;11.40;;
49840;SDS011;35738;49.890;5.930;2023-03-01T04:39:22;17.33;;;11.53;;
49840;SDS011;35738;49.890;5.930;2023-03-01T04:41:48;19.20;;;11.77;;
49840;SDS011;35738;49.890;5.930;2023-03-01T04:44:15;18.83;;;11.80;;
49840;SDS011;35738;49.890;5.930;2023-03-01T04:46:41;20.97;;;11.77;;
49840;SDS011;35738;49.890;5.930;2023-03-01T04:49:07;20.37;;;11.63;;
49840;SDS011;35738;49.890;5.930;2023-03-01T04:51:34;18.50;;;11.73;;
49840;SDS011;35738;49.890;5.930;2023-03-01T04:54:00;20.63;;;12.20;;
49840;SDS011;35738;49.890;5.930;2023-03-01T04:56:26;18.93;;;11.60;;
49840;SDS011;35738;49.890;5.930;2023-03-01T04:58:53;17.97;;;11.93;;
49840;SDS011;35738;49.890;5.930;2023-03-01T05:01:20;19.33;;;12.63;;
49840;SDS011;35738;49.890;5.930;2023-03-01T05:03:47;20.97;;;11.63;;
49840;SDS011;35738;49.890;5.930;2023-03-01T05:06:14;20.20;;;12.23;;
49840;SDS011;35738;49.890;5.930;2023-03-01T05:08:41;21.13;;;12.67;;
49840;SDS011;35738;49.890;5.930;2023-03-01T05:11:08;19.93;;;12.17;;
49840;SDS011;35738;49.890;5.930;2023-03-01T05:13:35;20.00;;;11.63;;
49840;SDS011;35738;49.890;5.930;2023-03-01T05:16:02;21.23;;;12.20;;
49840;SDS011;35738;49.890;5.930;2023-03-01T05:18:30;22.53;;;12.47;;
49840;SDS011;35738;49.890;5.930;2023-03-01T05:21:07;18.83;;;11.70;;
49840;SDS011;35738;49.890;5.930;2023-03-01T05:23:34;22.77;;;12.80;;
49840;SDS011;35738;49.890;5.930;2023-03-01T05:26:01;20.43;;;12.57;;
49840;SDS011;35738;49.890;5.930;2023-03-01T05:28:28;20.23;;;12.60;;
49840;SDS011;35738;49.890;5.930;2023-03-01T05:30:55;19.93;;;12.07;;
49840;SDS011;35738;49.890;5.930;2023-03-01T05:33:22;21.20;;;12.70;;
49840;SDS011;35738;49.890;5.930;2023-03-01T05:35:48;20.00;;;12.33;;
49840;SDS011;35738;49.890;5.930;2023-03-01T05:38:15;22.40;;;12.53;;
49840;SDS011;35738;49.890;5.930;2023-03-01T05:40:43;21.77;;;12.43;;
49840;SDS011;35738;49.890;5.930;2023-03-01T05:43:10;23.93;;;12.73;;
49840;SDS011;35738;49.890;5.930;2023-03-01T05:45:37;20.60;;;12.57;;
49840;SDS011;35738;49.890;5.930;2023-03-01T05:48:04;19.20;;;12.10;;
49840;SDS011;35738;49.890;5.930;2023-03-01T05:50:32;21.87;;;13.63;;
49840;SDS011;35738;49.890;5.930;2023-03-01T05:55:25;35.67;;;18.70;;
49840;SDS011;35738;49.890;5.930;2023-03-01T05:57:54;36.67;;;18.63;;
49840;SDS011;35738;49.890;5.930;2023-03-01T06:00:21;230.43;;;88.17;;
49840;SDS011;35738;49.890;5.930;2023-03-01T06:02:50;144.87;;;54.00;;
49840;SDS011;35738;49.890;5.930;2023-03-01T06:05:17;70.10;;;32.07;;
49840;SDS011;35738;49.890;5.930;2023-03-01T06:07:44;76.33;;;33.90;;
49840;SDS011;35738;49.890;5.930;2023-03-01T06:10:11;110.40;;;49.90;;
49840;SDS011;35738;49.890;5.930;2023-03-01T06:12:38;171.67;;;79.17;;
49840;SDS011;35738;49.890;5.930;2023-03-01T06:15:05;55.47;;;28.90;;
49840;SDS011;35738;49.890;5.930;2023-03-01T06:17:33;66.93;;;33.10;;
49840;SDS011;35738;49.890;5.930;2023-03-01T06:20:04;52.67;;;27.67;;
49840;SDS011;35738;49.890;5.930;2023-03-01T06:22:30;68.17;;;40.57;;
49840;SDS011;35738;49.890;5.930;2023-03-01T06:24:57;33.07;;;19.13;;
49840;SDS011;35738;49.890;5.930;2023-03-01T06:27:23;41.17;;;24.63;;
49840;SDS011;35738;49.890;5.930;2023-03-01T06:29:49;32.93;;;19.57;;
49840;SDS011;35738;49.890;5.930;2023-03-01T06:32:16;31.20;;;18.37;;
49840;SDS011;35738;49.890;5.930;2023-03-01T06:34:42;32.70;;;16.53;;
49840;SDS011;35738;49.890;5.930;2023-03-01T06:37:08;30.10;;;18.27;;
49840;SDS011;35738;49.890;5.930;2023-03-01T06:39:35;28.87;;;18.43;;
49840;SDS011;35738;49.890;5.930;2023-03-01T06:42:01;24.93;;;14.93;;
49840;SDS011;35738;49.890;5.930;2023-03-01T06:44:27;24.87;;;14.50;;
49840;SDS011;35738;49.890;5.930;2023-03-01T06:46:54;24.30;;;14.07;;
49840;SDS011;35738;49.890;5.930;2023-03-01T06:49:20;24.53;;;14.60;;
49840;SDS011;35738;49.890;5.930;2023-03-01T06:51:47;28.50;;;15.47;;
49840;SDS011;35738;49.890;5.930;2023-03-01T06:54:13;26.90;;;15.70;;
49840;SDS011;35738;49.890;5.930;2023-03-01T06:56:39;28.87;;;17.10;;
49840;SDS011;35738;49.890;5.930;2023-03-01T06:59:06;33.30;;;18.37;;
49840;SDS011;35738;49.890;5.930;2023-03-01T07:01:32;30.60;;;17.90;;
49840;SDS011;35738;49.890;5.930;2023-03-01T07:03:59;35.17;;;18.43;;
49840;SDS011;35738;49.890;5.930;2023-03-01T07:06:25;35.83;;;19.70;;
49840;SDS011;35738;49.890;5.930;2023-03-01T07:08:51;54.53;;;28.00;;
49840;SDS011;35738;49.890;5.930;2023-03-01T07:11:17;47.13;;;26.13;;
49840;SDS011;35738;49.890;5.930;2023-03-01T07:13:44;31.63;;;18.03;;
49840;SDS011;35738;49.890;5.930;2023-03-01T07:16:10;51.23;;;27.03;;
49840;SDS011;35738;49.890;5.930;2023-03-01T07:18:36;54.80;;;29.47;;
49840;SDS011;35738;49.890;5.930;2023-03-01T07:21:04;136.63;;;53.10;;
49840;SDS011;35738;49.890;5.930;2023-03-01T07:23:30;100.00;;;45.10;;
49840;SDS011;35738;49.890;5.930;2023-03-01T07:25:56;54.70;;;30.23;;
49840;SDS011;35738;49.890;5.930;2023-03-01T07:28:23;33.60;;;19.03;;
49840;SDS011;35738;49.890;5.930;2023-03-01T07:30:49;42.43;;;22.87;;
49840;SDS011;35738;49.890;5.930;2023-03-01T07:33:16;34.10;;;18.43;;
49840;SDS011;35738;49.890;5.930;2023-03-01T07:35:43;35.27;;;18.03;;
49840;SDS011;35738;49.890;5.930;2023-03-01T07:38:09;39.63;;;21.33;;
49840;SDS011;35738;49.890;5.930;2023-03-01T07:40:35;42.67;;;21.33;;
49840;SDS011;35738;49.890;5.930;2023-03-01T07:43:02;34.73;;;17.77;;
49840;SDS011;35738;49.890;5.930;2023-03-01T07:45:29;51.00;;;25.07;;
49840;SDS011;35738;49.890;5.930;2023-03-01T07:47:55;41.67;;;21.73;;
49840;SDS011;35738;49.890;5.930;2023-03-01T07:50:22;42.33;;;21.50;;
49840;SDS011;35738;49.890;5.930;2023-03-01T07:52:49;72.00;;;33.23;;
49840;SDS011;35738;49.890;5.930;2023-03-01T07:55:16;96.27;;;44.10;;
49840;SDS011;35738;49.890;5.930;2023-03-01T07:57:42;48.27;;;26.47;;
49840;SDS011;35738;49.890;5.930;2023-03-01T08:00:10;64.73;;;34.37;;
49840;SDS011;35738;49.890;5.930;2023-03-01T08:02:37;28.73;;;15.83;;
49840;SDS011;35738;49.890;5.930;2023-03-01T08:05:03;66.10;;;34.17;;
49840;SDS011;35738;49.890;5.930;2023-03-01T08:07:30;48.97;;;26.07;;
49840;SDS011;35738;49.890;5.930;2023-03-01T08:09:56;29.67;;;18.07;;
49840;SDS011;35738;49.890;5.930;2023-03-01T08:12:22;33.63;;;17.90;;
49840;SDS011;35738;49.890;5.930;2023-03-01T08:14:49;52.00;;;28.83;;
49840;SDS011;35738;49.890;5.930;2023-03-01T08:17:16;45.90;;;25.10;;
49840;SDS011;35738;49.890;5.930;2023-03-01T08:19:42;52.97;;;29.17;;
49840;SDS011;35738;49.890;5.930;2023-03-01T08:22:09;39.20;;;21.83;;
49840;SDS011;35738;49.890;5.930;2023-03-01T08:24:35;28.40;;;16.80;;
49840;SDS011;35738;49.890;5.930;2023-03-01T08:27:01;35.97;;;21.80;;
49840;SDS011;35738;49.890;5.930;2023-03-01T08:29:32;49.00;;;27.80;;
49840;SDS011;35738;49.890;5.930;2023-03-01T08:31:58;29.83;;;18.37;;
49840;SDS011;35738;49.890;5.930;2023-03-01T08:34:25;27.07;;;16.10;;
49840;SDS011;35738;49.890;5.930;2023-03-01T08:36:51;25.27;;;15.23;;
49840;SDS011;35738;49.890;5.930;2023-03-01T08:39:18;26.07;;;15.87;;
49840;SDS011;35738;49.890;5.930;2023-03-01T08:41:46;25.10;;;16.10;;
49840;SDS011;35738;49.890;5.930;2023-03-01T08:44:13;29.50;;;16.43;;
49840;SDS011;35738;49.890;5.930;2023-03-01T08:46:43;93.07;;;43.37;;
49840;SDS011;35738;49.890;5.930;2023-03-01T08:49:13;68.13;;;33.30;;
49840;SDS011;35738;49.890;5.930;2023-03-01T08:51:40;41.27;;;23.53;;
49840;SDS011;35738;49.890;5.930;2023-03-01T08:54:09;51.67;;;25.83;;
49840;SDS011;35738;49.890;5.930;2023-03-01T08:56:36;33.93;;;19.40;;
49840;SDS011;35738;49.890;5.930;2023-03-01T08:59:02;35.50;;;19.50;;
49840;SDS011;35738;49.890;5.930;2023-03-01T09:01:29;29.40;;;17.10;;
49840;SDS011;35738;49.890;5.930;2023-03-01T09:03:55;24.90;;;15.67;;
49840;SDS011;35738;49.890;5.930;2023-03-01T09:06:24;29.13;;;15.93;;
49840;SDS011;35738;49.890;5.930;2023-03-01T09:08:50;29.97;;;17.17;;
49840;SDS011;35738;49.890;5.930;2023-03-01T09:11:18;32.00;;;18.10;;
49840;SDS011;35738;49.890;5.930;2023-03-01T09:13:45;22.80;;;14.83;;
49840;SDS011;35738;49.890;5.930;2023-03-01T09:16:13;29.23;;;15.53;;
49840;SDS011;35738;49.890;5.930;2023-03-01T09:18:40;26.33;;;15.47;;
49840;SDS011;35738;49.890;5.930;2023-03-01T09:21:07;29.47;;;17.33;;
49840;SDS011;35738;49.890;5.930;2023-03-01T09:23:38;26.77;;;17.23;;
49840;SDS011;35738;49.890;5.930;2023-03-01T09:26:06;26.53;;;16.70;;
49840;SDS011;35738;49.890;5.930;2023-03-01T09:28:33;26.03;;;16.00;;
49840;SDS011;35738;49.890;5.930;2023-03-01T09:30:59;24.27;;;15.33;;
49840;SDS011;35738;49.890;5.930;2023-03-01T09:33:26;28.67;;;15.53;;
49840;SDS011;35738;49.890;5.930;2023-03-01T09:35:59;28.00;;;17.10;;
49840;SDS011;35738;49.890;5.930;2023-03-01T09:38:26;27.70;;;17.00;;
49840;SDS011;35738;49.890;5.930;2023-03-01T09:40:53;25.30;;;15.87;;
49840;SDS011;35738;49.890;5.930;2023-03-01T09:46:05;27.63;;;15.53;;
49840;SDS011;35738;49.890;5.930;2023-03-01T09:48:42;26.67;;;16.03;;
49840;SDS011;35738;49.890;5.930;2023-03-01T09:51:12;26.87;;;15.53;;
49840;SDS011;35738;49.890;5.930;2023-03-01T09:53:40;29.47;;;15.90;;
49840;SDS011;35738;49.890;5.930;2023-03-01T09:56:20;27.90;;;16.17;;
49840;SDS011;35738;49.890;5.930;2023-03-01T09:58:56;26.03;;;15.20;;
49840;SDS011;35738;49.890;5.930;2023-03-01T10:04:00;26.60;;;15.93;;
49840;SDS011;35738;49.890;5.930;2023-03-01T10:06:27;27.00;;;16.10;;
49840;SDS011;35738;49.890;5.930;2023-03-01T10:09:02;24.53;;;15.53;;
49840;SDS011;35738;49.890;5.930;2023-03-01T10:11:31;27.90;;;14.63;;
49840;SDS011;35738;49.890;5.930;2023-03-01T10:14:02;26.40;;;14.83;;
49840;SDS011;35738;49.890;5.930;2023-03-01T10:16:50;27.80;;;15.67;;
49840;SDS011;35738;49.890;5.930;2023-03-01T10:19:21;26.70;;;16.03;;
49840;SDS011;35738;49.890;5.930;2023-03-01T10:21:49;25.63;;;16.10;;
49840;SDS011;35738;49.890;5.930;2023-03-01T10:24:16;26.57;;;16.00;;
49840;SDS011;35738;49.890;5.930;2023-03-01T10:29:11;27.43;;;16.90;;
49840;SDS011;35738;49.890;5.930;2023-03-01T10:31:43;23.37;;;14.07;;
49840;SDS011;35738;49.890;5.930;2023-03-01T10:34:12;30.10;;;17.43;;
49840;SDS011;35738;49.890;5.930;2023-03-01T10:36:39;40.43;;;19.63;;
49840;SDS011;35738;49.890;5.930;2023-03-01T10:39:14;30.47;;;17.73;;
49840;SDS011;35738;49.890;5.930;2023-03-01T10:42:00;30.77;;;16.60;;
49840;SDS011;35738;49.890;5.930;2023-03-01T10:47:21;25.03;;;13.80;;
49840;SDS011;35738;49.890;5.930;2023-03-01T10:49:56;25.53;;;15.07;;
49840;SDS011;35738;49.890;5.930;2023-03-01T10:52:23;31.93;;;16.23;;
49840;SDS011;35738;49.890;5.930;2023-03-01T10:54:51;34.37;;;18.67;;
49840;SDS011;35738;49.890;5.930;2023-03-01T10:57:24;63.17;;;29.53;;
49840;SDS011;35738;49.890;5.930;2023-03-01T11:00:00;27.93;;;16.43;;
49840;SDS011;35738;49.890;5.930;2023-03-01T11:02:30;47.43;;;22.10;;
49840;SDS011;35738;49.890;5.930;2023-03-01T11:05:13;128.80;;;52.77;;
49840;SDS011;35738;49.890;5.930;2023-03-01T11:07:52;92.60;;;39.60;;
49840;SDS011;35738;49.890;5.930;2023-03-01T11:12:48;29.83;;;17.83;;
49840;SDS011;35738;49.890;5.930;2023-03-01T11:15:27;42.57;;;23.10;;
49840;SDS011;35738;49.890;5.930;2023-03-01T11:17:54;20.93;;;12.83;;
49840;SDS011;35738;49.890;5.930;2023-03-01T11:20:32;40.73;;;21.77;;
49840;SDS011;35738;49.890;5.930;2023-03-01T11:23:01;26.77;;;14.97;;
49840;SDS011;35738;49.890;5.930;2023-03-01T11:25:30;32.33;;;18.03;;
49840;SDS011;35738;49.890;5.930;2023-03-01T11:27:57;28.43;;;16.70;;
49840;SDS011;35738;49.890;5.930;2023-03-01T11:30:29;28.13;;;17.40;;
49840;SDS011;35738;49.890;5.930;2023-03-01T11:35:24;20.87;;;13.23;;
49840;SDS011;35738;49.890;5.930;2023-03-01T11:37:58;24.77;;;15.77;;
49840;SDS011;35738;49.890;5.930;2023-03-01T11:40:26;20.80;;;13.10;;
49840;SDS011;35738;49.890;5.930;2023-03-01T11:43:05;18.60;;;12.87;;
49840;SDS011;35738;49.890;5.930;2023-03-01T11:45:42;23.23;;;14.07;;
49840;SDS011;35738;49.890;5.930;2023-03-01T11:50:48;22.50;;;14.40;;
49840;SDS011;35738;49.890;5.930;2023-03-01T12:14:30;19.43;;;13.27;;
49840;SDS011;35738;49.890;5.930;2023-03-01T12:22:17;20.93;;;13.07;;
49840;SDS011;35738;49.890;5.930;2023-03-01T12:27:39;21.60;;;13.10;;
49840;SDS011;35738;49.890;5.930;2023-03-01T12:35:31;18.30;;;11.53;;
49840;SDS011;35738;49.890;5.930;2023-03-01T12:43:17;18.87;;;12.77;;
49840;SDS011;35738;49.890;5.930;2023-03-01T12:45:57;18.77;;;12.53;;
49840;SDS011;35738;49.890;5.930;2023-03-01T12:48:31;19.03;;;12.73;;
49840;SDS011;35738;49.890;5.930;2023-03-01T12:51:03;19.52;;;13.07;;
49840;SDS011;35738;49.890;5.930;2023-03-01T12:53:39;18.00;;;12.07;;
49840;SDS011;35738;49.890;5.930;2023-03-01T12:56:07;21.23;;;12.60;;
49840;SDS011;35738;49.890;5.930;2023-03-01T12:58:39;18.43;;;11.57;;
49840;SDS011;35738;49.890;5.930;2023-03-01T13:03:54;16.60;;;11.83;;
49840;SDS011;35738;49.890;5.930;2023-03-01T13:09:12;17.57;;;11.87;;
49840;SDS011;35738;49.890;5.930;2023-03-01T13:11:41;19.47;;;12.60;;
49840;SDS011;35738;49.890;5.930;2023-03-01T13:16:51;18.17;;;11.37;;
49840;SDS011;35738;49.890;5.930;2023-03-01T13:19:22;18.17;;;11.97;;
49840;SDS011;35738;49.890;5.930;2023-03-01T13:21:49;18.88;;;12.20;;
49840;SDS011;35738;49.890;5.930;2023-03-01T13:27:18;21.70;;;12.67;;
49840;SDS011;35738;49.890;5.930;2023-03-01T13:32:27;18.40;;;11.50;;
49840;SDS011;35738;49.890;5.930;2023-03-01T13:37:43;17.67;;;10.60;;
49840;SDS011;35738;49.890;5.930;2023-03-01T13:42:38;18.05;;;11.38;;
49840;SDS011;35738;49.890;5.930;2023-03-01T13:45:24;20.63;;;12.80;;
49840;SDS011;35738;49.890;5.930;2023-03-01T13:47:56;36.00;;;21.17;;
49840;SDS011;35738;49.890;5.930;2023-03-01T13:50:25;76.17;;;40.17;;
49840;SDS011;35738;49.890;5.930;2023-03-01T13:52:53;53.60;;;29.10;;
49840;SDS011;35738;49.890;5.930;2023-03-01T13:55:23;41.92;;;24.52;;
49840;SDS011;35738;49.890;5.930;2023-03-01T13:57:53;36.35;;;20.08;;
49840;SDS011;35738;49.890;5.930;2023-03-01T14:00:27;18.27;;;12.53;;
49840;SDS011;35738;49.890;5.930;2023-03-01T14:05:32;19.13;;;12.13;;
49840;SDS011;35738;49.890;5.930;2023-03-01T14:07:58;32.38;;;19.40;;
49840;SDS011;35738;49.890;5.930;2023-03-01T14:10:26;39.33;;;23.63;;
49840;SDS011;35738;49.890;5.930;2023-03-01T14:12:55;22.60;;;14.48;;
49840;SDS011;35738;49.890;5.930;2023-03-01T14:15:34;41.45;;;24.52;;
49840;SDS011;35738;49.890;5.930;2023-03-01T14:20:47;20.42;;;13.65;;
49840;SDS011;35738;49.890;5.930;2023-03-01T14:23:18;15.40;;;10.27;;
49840;SDS011;35738;49.890;5.930;2023-03-01T14:25:46;25.13;;;15.10;;
49840;SDS011;35738;49.890;5.930;2023-03-01T14:30:51;14.13;;;10.63;;
49840;SDS011;35738;49.890;5.930;2023-03-01T14:33:28;18.60;;;12.95;;
49840;SDS011;35738;49.890;5.930;2023-03-01T14:35:57;18.23;;;12.40;;
49840;SDS011;35738;49.890;5.930;2023-03-01T14:41:02;109.68;;;56.05;;
49840;SDS011;35738;49.890;5.930;2023-03-01T14:43:31;91.30;;;49.80;;
49840;SDS011;35738;49.890;5.930;2023-03-01T14:45:58;61.28;;;37.03;;
49840;SDS011;35738;49.890;5.930;2023-03-01T14:48:24;14.18;;;10.02;;
49840;SDS011;35738;49.890;5.930;2023-03-01T14:50:52;23.10;;;14.88;;
49840;SDS011;35738;49.890;5.930;2023-03-01T14:53:20;16.83;;;12.82;;
49840;SDS011;35738;49.890;5.930;2023-03-01T14:55:49;15.43;;;10.73;;
49840;SDS011;35738;49.890;5.930;2023-03-01T14:58:18;14.88;;;10.52;;
49840;SDS011;35738;49.890;5.930;2023-03-01T15:00:48;19.63;;;14.55;;
49840;SDS011;35738;49.890;5.930;2023-03-01T15:03:24;14.00;;;10.20;;
49840;SDS011;35738;49.890;5.930;2023-03-01T15:05:51;20.27;;;13.27;;
49840;SDS011;35738;49.890;5.930;2023-03-01T15:08:19;18.35;;;14.10;;
49840;SDS011;35738;49.890;5.930;2023-03-01T15:10:56;15.43;;;11.27;;
49840;SDS011;35738;49.890;5.930;2023-03-01T15:13:24;17.73;;;12.98;;
49840;SDS011;35738;49.890;5.930;2023-03-01T15:15:51;16.27;;;11.85;;
49840;SDS011;35738;49.890;5.930;2023-03-01T15:18:20;17.92;;;13.40;;
49840;SDS011;35738;49.890;5.930;2023-03-01T15:20:47;16.55;;;11.18;;
49840;SDS011;35738;49.890;5.930;2023-03-01T15:23:32;21.55;;;13.73;;
49840;SDS011;35738;49.890;5.930;2023-03-01T15:25:59;18.02;;;11.75;;
49840;SDS011;35738;49.890;5.930;2023-03-01T15:28:30;19.30;;;12.93;;
49840;SDS011;35738;49.890;5.930;2023-03-01T15:33:31;16.35;;;10.98;;
49840;SDS011;35738;49.890;5.930;2023-03-01T15:35:58;20.70;;;12.57;;
49840;SDS011;35738;49.890;5.930;2023-03-01T15:40:52;15.20;;;11.13;;
49840;SDS011;35738;49.890;5.930;2023-03-01T15:43:37;18.63;;;12.05;;
49840;SDS011;35738;49.890;5.930;2023-03-01T15:46:04;17.45;;;11.55;;
49840;SDS011;35738;49.890;5.930;2023-03-01T15:48:30;19.73;;;12.43;;
49840;SDS011;35738;49.890;5.930;2023-03-01T15:50:57;18.33;;;11.85;;
49840;SDS011;35738;49.890;5.930;2023-03-01T15:53:24;16.35;;;11.40;;
49840;SDS011;35738;49.890;5.930;2023-03-01T15:55:50;15.18;;;10.70;;
49840;SDS011;35738;49.890;5.930;2023-03-01T15:58:17;17.48;;;11.90;;
49840;SDS011;35738;49.890;5.930;2023-03-01T16:00:45;18.10;;;11.50;;
49840;SDS011;35738;49.890;5.930;2023-03-01T16:03:26;17.02;;;12.32;;
49840;SDS011;35738;49.890;5.930;2023-03-01T16:05:52;15.80;;;11.25;;
49840;SDS011;35738;49.890;5.930;2023-03-01T16:08:19;16.98;;;11.27;;
49840;SDS011;35738;49.890;5.930;2023-03-01T16:10:46;14.02;;;10.65;;
49840;SDS011;35738;49.890;5.930;2023-03-01T16:13:12;16.13;;;10.68;;
49840;SDS011;35738;49.890;5.930;2023-03-01T16:15:39;14.68;;;10.45;;
49840;SDS011;35738;49.890;5.930;2023-03-01T16:18:06;17.23;;;11.00;;